Smock, PA (15480)

8:06 PM EST on November 22, 2014 (GMT -0500)
Dunbar | Change Station
CLOSE
Current Station
Personal Weather Station
Location: Dunbar, PA
Elevation: 1056 ft
Nearby Weather Stations

Elev 1056 ft 40.00 °N, 79.69 °W | Updated 1 minute ago

Overcast
Overcast
47.3 °F
Feels Like 47 °F
N
2.2
Wind Variable Wind from SE
Gusts 2.2 mph

Today
High -- | Low -- °F
--% Chance of Precip.
Yesterday
High -- | Low -- °F
Precip. -- in
7:12 AM 4:58 PM
New Moon, 0% visible
Pressure 30.19 in
Visibility 10.0 miles
Clouds Mostly Cloudy 10000 ft
Windchill 47 °F
Dew Point 34 °F
Humidity 59%
Rainfall 0.00 in
Snow Depth Not available.
UV 0 out of 12
Pollen .10 out of 12
Air Quality Not available.
Flu Activity Not available.
METAR KMGW 230053Z 00000KT 10SM BKN100 10/M03 A3015 RMK AO2 SLP221 T01001033

More Conditions Fewer Conditions

Pressure 30.19 in
Visibility 10.0 miles
Clouds Mostly Cloudy 10000 ft
Windchill 47 °F
Dew Point 34 °F
Humidity 59%
Rainfall 0.00 in
Snow Depth Not available.
UV 0 out of 12
Pollen .10 out of 12
Air Quality Not available.
Flu Activity Not available.
METAR KMGW 230053Z 00000KT 10SM BKN100 10/M03 A3015 RMK AO2 SLP221 T01001033

More Conditions Fewer Conditions

10-Day Weather Forecast

Almanac

Astronomy

Nov. 22, 2014 Rise Set
Actual Time
Civil Twilight
Nautical Twilight
Astronomical Twilight
Moon
Length of Visible Light
Length of Day
Tomorrow will be .
, % of the Moon is Illuminated

Today's Extremes

State Highs State Lows

Community

WunderPhotos

Upload Photos

1,772,949 photos uploaded!

WunderBlogs® & News

Nearby

Air Quality

  Air Quality AQ Index Pollutant
Not available.

Snow Depth

Station Depth Elevation

Earthquake Activity

City Distance Mag. Time & Date
Minimum magnitude displayed is 2.5.

Coastal Water Temperatures

Place Temperature

Nearby Weather Stations